sensor_id;sensor_type;location;lat;lon;timestamp;pressure;altitude;pressure_sealevel;temperature;humidity
34500;BME280;20745;50.882;6.962;2023-01-16T00:00:33;99262.56;;;7.41;100.00
34500;BME280;20745;50.882;6.962;2023-01-16T00:02:59;99217.13;;;7.12;100.00
34500;BME280;20745;50.882;6.962;2023-01-16T00:05:26;99250.69;;;7.23;100.00
34500;BME280;20745;50.882;6.962;2023-01-16T00:07:52;99246.16;;;7.23;100.00
34500;BME280;20745;50.882;6.962;2023-01-16T00:10:19;99236.00;;;7.19;100.00
34500;BME280;20745;50.882;6.962;2023-01-16T00:12:48;99228.13;;;7.17;100.00
34500;BME280;20745;50.882;6.962;2023-01-16T00:15:15;99229.94;;;7.10;100.00
34500;BME280;20745;50.882;6.962;2023-01-16T00:17:41;99209.72;;;7.14;100.00
34500;BME280;20745;50.882;6.962;2023-01-16T00:20:08;99209.97;;;7.19;100.00
34500;BME280;20745;50.882;6.962;2023-01-16T00:22:34;99207.13;;;7.27;100.00
34500;BME280;20745;50.882;6.962;2023-01-16T00:25:00;99200.72;;;7.28;100.00
34500;BME280;20745;50.882;6.962;2023-01-16T00:27:27;99203.03;;;7.31;100.00
34500;BME280;20745;50.882;6.962;2023-01-16T00:29:53;99196.06;;;7.43;100.00
34500;BME280;20745;50.882;6.962;2023-01-16T00:32:19;99189.03;;;7.42;100.00
34500;BME280;20745;50.882;6.962;2023-01-16T00:34:46;99190.91;;;7.42;100.00
34500;BME280;20745;50.882;6.962;2023-01-16T00:37:12;99185.53;;;7.42;100.00
34500;BME280;20745;50.882;6.962;2023-01-16T00:39:39;99180.09;;;7.35;100.00
34500;BME280;20745;50.882;6.962;2023-01-16T00:42:06;99173.53;;;7.38;100.00
34500;BME280;20745;50.882;6.962;2023-01-16T00:44:33;99176.00;;;7.39;100.00
34500;BME280;20745;50.882;6.962;2023-01-16T00:46:59;99173.94;;;7.41;100.00
34500;BME280;20745;50.882;6.962;2023-01-16T00:49:25;99172.91;;;7.42;100.00
34500;BME280;20745;50.882;6.962;2023-01-16T00:51:52;99165.47;;;7.38;100.00
34500;BME280;20745;50.882;6.962;2023-01-16T00:54:19;99155.75;;;7.37;100.00
34500;BME280;20745;50.882;6.962;2023-01-16T00:56:45;99153.72;;;7.45;100.00
34500;BME280;20745;50.882;6.962;2023-01-16T00:59:11;99163.88;;;7.50;100.00
34500;BME280;20745;50.882;6.962;2023-01-16T01:01:38;99162.63;;;7.46;100.00
34500;BME280;20745;50.882;6.962;2023-01-16T01:04:05;99153.31;;;7.48;100.00
34500;BME280;20745;50.882;6.962;2023-01-16T01:06:33;99148.38;;;7.52;100.00
34500;BME280;20745;50.882;6.962;2023-01-16T01:08:59;99137.59;;;7.45;100.00
34500;BME280;20745;50.882;6.962;2023-01-16T01:11:25;99138.84;;;7.49;100.00
34500;BME280;20745;50.882;6.962;2023-01-16T01:13:52;99135.97;;;7.51;100.00
34500;BME280;20745;50.882;6.962;2023-01-16T01:16:18;99140.13;;;7.53;100.00
34500;BME280;20745;50.882;6.962;2023-01-16T01:18:45;99125.66;;;7.54;100.00
34500;BME280;20745;50.882;6.962;2023-01-16T01:21:11;99119.03;;;7.50;100.00
34500;BME280;20745;50.882;6.962;2023-01-16T01:23:37;99112.84;;;7.50;100.00
34500;BME280;20745;50.882;6.962;2023-01-16T01:26:12;99105.97;;;7.41;100.00
34500;BME280;20745;50.882;6.962;2023-01-16T01:28:38;99090.06;;;7.39;100.00
34500;BME280;20745;50.882;6.962;2023-01-16T01:31:11;99084.91;;;7.38;100.00
34500;BME280;20745;50.882;6.962;2023-01-16T01:33:38;99090.03;;;7.33;100.00
34500;BME280;20745;50.882;6.962;2023-01-16T01:36:05;99077.47;;;7.33;100.00
34500;BME280;20745;50.882;6.962;2023-01-16T01:38:31;99087.16;;;7.28;100.00
34500;BME280;20745;50.882;6.962;2023-01-16T01:40:58;99089.00;;;7.27;100.00
34500;BME280;20745;50.882;6.962;2023-01-16T01:43:38;99078.44;;;7.26;100.00
34500;BME280;20745;50.882;6.962;2023-01-16T01:46:05;99075.56;;;7.27;100.00
34500;BME280;20745;50.882;6.962;2023-01-16T01:48:34;99072.28;;;7.32;100.00
34500;BME280;20745;50.882;6.962;2023-01-16T01:51:06;99064.03;;;7.33;100.00
34500;BME280;20745;50.882;6.962;2023-01-16T01:53:44;99053.69;;;7.30;100.00
34500;BME280;20745;50.882;6.962;2023-01-16T01:56:15;99042.31;;;7.28;100.00
34500;BME280;20745;50.882;6.962;2023-01-16T01:58:44;99035.09;;;7.29;100.00
34500;BME280;20745;50.882;6.962;2023-01-16T02:01:17;99028.88;;;7.28;100.00
34500;BME280;20745;50.882;6.962;2023-01-16T02:03:56;99026.59;;;7.25;100.00
34500;BME280;20745;50.882;6.962;2023-01-16T02:06:25;99016.09;;;7.30;100.00
34500;BME280;20745;50.882;6.962;2023-01-16T02:08:54;99014.00;;;7.26;100.00
34500;BME280;20745;50.882;6.962;2023-01-16T02:11:30;99005.31;;;7.17;100.00
34500;BME280;20745;50.882;6.962;2023-01-16T02:13:59;99008.19;;;7.22;100.00
34500;BME280;20745;50.882;6.962;2023-01-16T02:16:26;99004.13;;;7.26;100.00
34500;BME280;20745;50.882;6.962;2023-01-16T02:19:16;98991.50;;;7.27;100.00
34500;BME280;20745;50.882;6.962;2023-01-16T02:27:17;98967.75;;;7.30;100.00
34500;BME280;20745;50.882;6.962;2023-01-16T02:29:52;98970.44;;;7.30;100.00
34500;BME280;20745;50.882;6.962;2023-01-16T02:37:49;98941.72;;;7.31;100.00
34500;BME280;20745;50.882;6.962;2023-01-16T02:47:53;98924.00;;;7.36;100.00
34500;BME280;20745;50.882;6.962;2023-01-16T02:55:16;98907.88;;;7.36;100.00
34500;BME280;20745;50.882;6.962;2023-01-16T02:57:47;98898.78;;;7.37;100.00
34500;BME280;20745;50.882;6.962;2023-01-16T03:00:15;98883.91;;;7.41;100.00
34500;BME280;20745;50.882;6.962;2023-01-16T03:02:43;98871.53;;;7.40;100.00
34500;BME280;20745;50.882;6.962;2023-01-16T03:05:10;98865.94;;;7.35;100.00
34500;BME280;20745;50.882;6.962;2023-01-16T03:07:44;98855.81;;;7.24;100.00
34500;BME280;20745;50.882;6.962;2023-01-16T03:15:14;98833.09;;;7.20;100.00
34500;BME280;20745;50.882;6.962;2023-01-16T03:20:29;98819.66;;;7.14;100.00
34500;BME280;20745;50.882;6.962;2023-01-16T03:25:48;98803.75;;;7.12;100.00
34500;BME280;20745;50.882;6.962;2023-01-16T03:30:51;98795.28;;;7.02;100.00
34500;BME280;20745;50.882;6.962;2023-01-16T03:36:02;98779.81;;;7.04;100.00
34500;BME280;20745;50.882;6.962;2023-01-16T03:38:30;98778.38;;;6.89;100.00
34500;BME280;20745;50.882;6.962;2023-01-16T03:40:58;98778.75;;;6.92;100.00
34500;BME280;20745;50.882;6.962;2023-01-16T03:43:29;98772.16;;;6.88;100.00
34500;BME280;20745;50.882;6.962;2023-01-16T03:46:01;98767.44;;;6.90;100.00
34500;BME280;20745;50.882;6.962;2023-01-16T03:48:47;98766.63;;;6.96;100.00
34500;BME280;20745;50.882;6.962;2023-01-16T03:51:18;98757.13;;;7.00;100.00
34500;BME280;20745;50.882;6.962;2023-01-16T03:53:47;98742.84;;;7.00;100.00
34500;BME280;20745;50.882;6.962;2023-01-16T03:56:20;98744.31;;;6.96;100.00
34500;BME280;20745;50.882;6.962;2023-01-16T03:58:49;98739.34;;;6.99;100.00
34500;BME280;20745;50.882;6.962;2023-01-16T04:04:18;98712.94;;;6.96;100.00
34500;BME280;20745;50.882;6.962;2023-01-16T04:06:48;98705.50;;;6.85;100.00
34500;BME280;20745;50.882;6.962;2023-01-16T04:09:18;98691.06;;;6.86;100.00
34500;BME280;20745;50.882;6.962;2023-01-16T04:11:48;98687.94;;;6.89;100.00
34500;BME280;20745;50.882;6.962;2023-01-16T04:14:15;98680.31;;;6.93;100.00
34500;BME280;20745;50.882;6.962;2023-01-16T04:16:44;98672.91;;;6.95;100.00
34500;BME280;20745;50.882;6.962;2023-01-16T04:19:11;98659.69;;;6.93;100.00
34500;BME280;20745;50.882;6.962;2023-01-16T04:21:41;98646.66;;;6.97;100.00
34500;BME280;20745;50.882;6.962;2023-01-16T04:24:08;98648.56;;;6.96;100.00
34500;BME280;20745;50.882;6.962;2023-01-16T04:26:34;98640.91;;;6.93;100.00
34500;BME280;20745;50.882;6.962;2023-01-16T04:29:01;98634.91;;;6.91;100.00
34500;BME280;20745;50.882;6.962;2023-01-16T04:31:27;98611.81;;;6.90;100.00
34500;BME280;20745;50.882;6.962;2023-01-16T04:33:54;98606.44;;;6.90;100.00
34500;BME280;20745;50.882;6.962;2023-01-16T04:36:20;98592.81;;;6.92;100.00
34500;BME280;20745;50.882;6.962;2023-01-16T04:38:47;98579.63;;;6.90;100.00
34500;BME280;20745;50.882;6.962;2023-01-16T04:41:13;98570.53;;;6.91;100.00
34500;BME280;20745;50.882;6.962;2023-01-16T04:44:00;98575.88;;;6.91;100.00
34500;BME280;20745;50.882;6.962;2023-01-16T04:46:26;98558.56;;;6.87;100.00
34500;BME280;20745;50.882;6.962;2023-01-16T04:48:52;98549.69;;;6.87;100.00
34500;BME280;20745;50.882;6.962;2023-01-16T04:51:19;98548.63;;;6.88;100.00
34500;BME280;20745;50.882;6.962;2023-01-16T04:53:45;98537.91;;;6.94;100.00
34500;BME280;20745;50.882;6.962;2023-01-16T04:56:11;98526.97;;;6.96;100.00
34500;BME280;20745;50.882;6.962;2023-01-16T04:58:38;98525.13;;;6.96;100.00
34500;BME280;20745;50.882;6.962;2023-01-16T05:01:04;98514.97;;;6.98;100.00
34500;BME280;20745;50.882;6.962;2023-01-16T05:03:31;98511.03;;;7.01;100.00
34500;BME280;20745;50.882;6.962;2023-01-16T05:05:57;98498.25;;;7.03;100.00
34500;BME280;20745;50.882;6.962;2023-01-16T05:08:23;98486.09;;;7.00;100.00
34500;BME280;20745;50.882;6.962;2023-01-16T05:10:53;98486.88;;;7.01;100.00
34500;BME280;20745;50.882;6.962;2023-01-16T05:13:20;98487.91;;;7.06;100.00
34500;BME280;20745;50.882;6.962;2023-01-16T05:15:47;98481.50;;;7.07;100.00
34500;BME280;20745;50.882;6.962;2023-01-16T05:18:13;98471.34;;;7.09;100.00
34500;BME280;20745;50.882;6.962;2023-01-16T05:20:40;98467.44;;;7.12;100.00
34500;BME280;20745;50.882;6.962;2023-01-16T05:23:06;98457.72;;;7.11;100.00
34500;BME280;20745;50.882;6.962;2023-01-16T05:25:37;98449.31;;;7.07;100.00
34500;BME280;20745;50.882;6.962;2023-01-16T05:28:03;98438.78;;;7.06;100.00
34500;BME280;20745;50.882;6.962;2023-01-16T05:30:30;98440.63;;;7.05;100.00
34500;BME280;20745;50.882;6.962;2023-01-16T05:32:56;98418.31;;;7.11;100.00
34500;BME280;20745;50.882;6.962;2023-01-16T05:35:23;98412.94;;;7.11;100.00
34500;BME280;20745;50.882;6.962;2023-01-16T05:37:50;98408.63;;;7.10;100.00
34500;BME280;20745;50.882;6.962;2023-01-16T05:40:17;98405.94;;;7.10;100.00
34500;BME280;20745;50.882;6.962;2023-01-16T05:42:43;98385.72;;;7.08;100.00
34500;BME280;20745;50.882;6.962;2023-01-16T05:45:10;98380.94;;;7.10;100.00
34500;BME280;20745;50.882;6.962;2023-01-16T05:47:37;98374.38;;;7.06;100.00
34500;BME280;20745;50.882;6.962;2023-01-16T05:50:03;98376.63;;;7.09;100.00
34500;BME280;20745;50.882;6.962;2023-01-16T05:52:30;98359.09;;;7.06;100.00
34500;BME280;20745;50.882;6.962;2023-01-16T05:54:56;98368.78;;;7.07;100.00
34500;BME280;20745;50.882;6.962;2023-01-16T05:57:23;98367.31;;;7.11;100.00
34500;BME280;20745;50.882;6.962;2023-01-16T05:59:49;98355.31;;;7.14;100.00
34500;BME280;20745;50.882;6.962;2023-01-16T06:02:19;98358.63;;;7.16;100.00
34500;BME280;20745;50.882;6.962;2023-01-16T06:04:46;98356.16;;;7.14;100.00
34500;BME280;20745;50.882;6.962;2023-01-16T06:07:13;98348.72;;;7.16;100.00
34500;BME280;20745;50.882;6.962;2023-01-16T06:09:40;98347.22;;;7.20;100.00
34500;BME280;20745;50.882;6.962;2023-01-16T06:12:06;98327.63;;;7.20;100.00
34500;BME280;20745;50.882;6.962;2023-01-16T06:14:36;98313.97;;;7.21;100.00
34500;BME280;20745;50.882;6.962;2023-01-16T06:17:02;98313.75;;;7.23;100.00
34500;BME280;20745;50.882;6.962;2023-01-16T06:19:28;98302.63;;;7.19;100.00
34500;BME280;20745;50.882;6.962;2023-01-16T06:21:55;98305.31;;;7.19;100.00
34500;BME280;20745;50.882;6.962;2023-01-16T06:24:21;98290.22;;;7.25;100.00
34500;BME280;20745;50.882;6.962;2023-01-16T06:26:48;98283.84;;;7.19;100.00
34500;BME280;20745;50.882;6.962;2023-01-16T06:29:14;98276.41;;;7.21;100.00
34500;BME280;20745;50.882;6.962;2023-01-16T06:31:41;98255.34;;;7.18;100.00
34500;BME280;20745;50.882;6.962;2023-01-16T06:34:07;98242.81;;;7.12;100.00
34500;BME280;20745;50.882;6.962;2023-01-16T06:36:33;98242.59;;;7.14;100.00
34500;BME280;20745;50.882;6.962;2023-01-16T06:39:00;98242.00;;;7.12;100.00
34500;BME280;20745;50.882;6.962;2023-01-16T06:41:26;98221.13;;;7.14;100.00
34500;BME280;20745;50.882;6.962;2023-01-16T06:43:52;98211.66;;;7.11;100.00
34500;BME280;20745;50.882;6.962;2023-01-16T06:46:19;98210.03;;;7.10;100.00
34500;BME280;20745;50.882;6.962;2023-01-16T06:48:45;98212.53;;;7.05;100.00
34500;BME280;20745;50.882;6.962;2023-01-16T06:51:11;98207.56;;;7.09;100.00
34500;BME280;20745;50.882;6.962;2023-01-16T06:53:38;98205.25;;;7.12;100.00
34500;BME280;20745;50.882;6.962;2023-01-16T06:56:04;98198.03;;;7.13;100.00
34500;BME280;20745;50.882;6.962;2023-01-16T06:58:31;98200.94;;;7.11;100.00
34500;BME280;20745;50.882;6.962;2023-01-16T07:00:57;98196.31;;;7.18;100.00
34500;BME280;20745;50.882;6.962;2023-01-16T07:03:23;98173.22;;;7.17;100.00
34500;BME280;20745;50.882;6.962;2023-01-16T07:05:50;98173.22;;;7.17;100.00
34500;BME280;20745;50.882;6.962;2023-01-16T07:08:17;98154.88;;;7.14;100.00
34500;BME280;20745;50.882;6.962;2023-01-16T07:10:43;98137.72;;;7.15;100.00
34500;BME280;20745;50.882;6.962;2023-01-16T07:13:10;98134.00;;;7.16;100.00
34500;BME280;20745;50.882;6.962;2023-01-16T07:15:37;98122.78;;;7.19;100.00
34500;BME280;20745;50.882;6.962;2023-01-16T07:18:22;98108.56;;;7.19;100.00
34500;BME280;20745;50.882;6.962;2023-01-16T07:21:09;98104.84;;;7.20;100.00
34500;BME280;20745;50.882;6.962;2023-01-16T07:23:57;98099.84;;;7.23;100.00
34500;BME280;20745;50.882;6.962;2023-01-16T07:26:25;98083.53;;;7.25;100.00
34500;BME280;20745;50.882;6.962;2023-01-16T07:28:51;98075.09;;;7.21;100.00
34500;BME280;20745;50.882;6.962;2023-01-16T07:31:19;98053.00;;;7.19;100.00
34500;BME280;20745;50.882;6.962;2023-01-16T07:33:47;98060.03;;;7.20;100.00
34500;BME280;20745;50.882;6.962;2023-01-16T07:36:13;98049.31;;;7.20;100.00
34500;BME280;20745;50.882;6.962;2023-01-16T07:38:40;98048.41;;;7.26;100.00
34500;BME280;20745;50.882;6.962;2023-01-16T07:41:06;98046.19;;;7.23;100.00
34500;BME280;20745;50.882;6.962;2023-01-16T07:43:32;98037.91;;;7.25;100.00
34500;BME280;20745;50.882;6.962;2023-01-16T07:45:59;98039.31;;;7.27;100.00
34500;BME280;20745;50.882;6.962;2023-01-16T07:48:25;98038.75;;;7.37;100.00
34500;BME280;20745;50.882;6.962;2023-01-16T07:50:53;98033.50;;;7.30;100.00
34500;BME280;20745;50.882;6.962;2023-01-16T07:53:20;98037.69;;;7.26;100.00
34500;BME280;20745;50.882;6.962;2023-01-16T07:55:48;98022.81;;;7.24;100.00
34500;BME280;20745;50.882;6.962;2023-01-16T07:58:16;98027.22;;;7.18;100.00
34500;BME280;20745;50.882;6.962;2023-01-16T08:00:42;98020.47;;;7.16;100.00
34500;BME280;20745;50.882;6.962;2023-01-16T08:03:09;98022.91;;;7.17;100.00
34500;BME280;20745;50.882;6.962;2023-01-16T08:05:36;98009.63;;;7.22;100.00
34500;BME280;20745;50.882;6.962;2023-01-16T08:08:02;98008.38;;;7.25;100.00
34500;BME280;20745;50.882;6.962;2023-01-16T08:10:29;97993.16;;;7.19;100.00
34500;BME280;20745;50.882;6.962;2023-01-16T08:12:55;97985.47;;;7.22;100.00
34500;BME280;20745;50.882;6.962;2023-01-16T08:15:22;97985.91;;;7.19;100.00
34500;BME280;20745;50.882;6.962;2023-01-16T08:17:48;97981.03;;;7.16;100.00
34500;BME280;20745;50.882;6.962;2023-01-16T08:20:14;97963.88;;;7.17;100.00
34500;BME280;20745;50.882;6.962;2023-01-16T08:22:44;97962.25;;;7.16;100.00
34500;BME280;20745;50.882;6.962;2023-01-16T08:25:11;97955.38;;;7.20;100.00
34500;BME280;20745;50.882;6.962;2023-01-16T08:27:37;97944.03;;;7.18;100.00
34500;BME280;20745;50.882;6.962;2023-01-16T08:30:04;97937.50;;;7.14;100.00
34500;BME280;20745;50.882;6.962;2023-01-16T08:32:31;97927.94;;;7.18;100.00
34500;BME280;20745;50.882;6.962;2023-01-16T08:34:57;97936.59;;;7.20;100.00
34500;BME280;20745;50.882;6.962;2023-01-16T08:37:24;97932.50;;;7.18;100.00
34500;BME280;20745;50.882;6.962;2023-01-16T08:39:50;97939.94;;;7.16;100.00
34500;BME280;20745;50.882;6.962;2023-01-16T08:42:16;97879.94;;;6.81;100.00
34500;BME280;20745;50.882;6.962;2023-01-16T08:45:02;97920.22;;;7.10;100.00
34500;BME280;20745;50.882;6.962;2023-01-16T08:47:46;97910.66;;;7.14;100.00
34500;BME280;20745;50.882;6.962;2023-01-16T08:50:31;97909.28;;;7.23;100.00
34500;BME280;20745;50.882;6.962;2023-01-16T08:53:16;97904.84;;;7.17;100.00
34500;BME280;20745;50.882;6.962;2023-01-16T08:55:43;97899.00;;;7.20;100.00
34500;BME280;20745;50.882;6.962;2023-01-16T08:58:09;97895.16;;;7.16;100.00
34500;BME280;20745;50.882;6.962;2023-01-16T09:00:36;97901.53;;;7.15;100.00
34500;BME280;20745;50.882;6.962;2023-01-16T09:03:02;97891.72;;;7.09;100.00
34500;BME280;20745;50.882;6.962;2023-01-16T09:05:28;97894.31;;;7.16;100.00
34500;BME280;20745;50.882;6.962;2023-01-16T09:07:55;97892.31;;;7.11;100.00
34500;BME280;20745;50.882;6.962;2023-01-16T09:10:21;97890.09;;;7.08;100.00
34500;BME280;20745;50.882;6.962;2023-01-16T09:12:48;97862.47;;;7.08;100.00
34500;BME280;20745;50.882;6.962;2023-01-16T09:15:33;97869.31;;;7.04;100.00
34500;BME280;20745;50.882;6.962;2023-01-16T09:17:59;97878.56;;;7.08;100.00
34500;BME280;20745;50.882;6.962;2023-01-16T09:20:26;97872.13;;;7.09;100.00
34500;BME280;20745;50.882;6.962;2023-01-16T09:22:56;97848.00;;;7.09;100.00
34500;BME280;20745;50.882;6.962;2023-01-16T09:25:43;97845.41;;;7.14;100.00
34500;BME280;20745;50.882;6.962;2023-01-16T09:28:09;97859.91;;;7.13;100.00
34500;BME280;20745;50.882;6.962;2023-01-16T09:30:36;97837.03;;;7.10;100.00
34500;BME280;20745;50.882;6.962;2023-01-16T09:33:02;97820.47;;;7.13;100.00
34500;BME280;20745;50.882;6.962;2023-01-16T09:35:28;97837.81;;;7.11;100.00
34500;BME280;20745;50.882;6.962;2023-01-16T09:37:55;97823.16;;;7.13;100.00
34500;BME280;20745;50.882;6.962;2023-01-16T09:40:21;97810.44;;;7.20;100.00
34500;BME280;20745;50.882;6.962;2023-01-16T09:43:01;97813.13;;;7.20;100.00
34500;BME280;20745;50.882;6.962;2023-01-16T09:45:49;97813.22;;;7.14;100.00
34500;BME280;20745;50.882;6.962;2023-01-16T09:48:20;97810.31;;;7.15;100.00
34500;BME280;20745;50.882;6.962;2023-01-16T09:50:50;97820.13;;;7.21;100.00
34500;BME280;20745;50.882;6.962;2023-01-16T09:53:32;97806.94;;;7.20;100.00
34500;BME280;20745;50.882;6.962;2023-01-16T09:56:18;97803.56;;;7.24;100.00
34500;BME280;20745;50.882;6.962;2023-01-16T09:59:12;97813.47;;;7.24;100.00
34500;BME280;20745;50.882;6.962;2023-01-16T10:01:43;97804.28;;;7.31;100.00
34500;BME280;20745;50.882;6.962;2023-01-16T10:06:47;97795.38;;;7.31;100.00
34500;BME280;20745;50.882;6.962;2023-01-16T10:09:40;97784.31;;;7.27;100.00
34500;BME280;20745;50.882;6.962;2023-01-16T10:12:11;97780.72;;;7.33;100.00
34500;BME280;20745;50.882;6.962;2023-01-16T10:20:17;97750.81;;;7.41;100.00
34500;BME280;20745;50.882;6.962;2023-01-16T10:30:56;97736.69;;;7.46;100.00
34500;BME280;20745;50.882;6.962;2023-01-16T10:35:51;97728.41;;;7.47;100.00
34500;BME280;20745;50.882;6.962;2023-01-16T10:40:53;97718.16;;;7.44;100.00
34500;BME280;20745;50.882;6.962;2023-01-16T10:43:34;97706.94;;;7.47;100.00
34500;BME280;20745;50.882;6.962;2023-01-16T10:46:20;97705.78;;;7.43;100.00
34500;BME280;20745;50.882;6.962;2023-01-16T10:49:23;97712.41;;;7.52;100.00
34500;BME280;20745;50.882;6.962;2023-01-16T10:51:53;97695.94;;;7.61;100.00
34500;BME280;20745;50.882;6.962;2023-01-16T10:54:20;97690.81;;;7.59;100.00
34500;BME280;20745;50.882;6.962;2023-01-16T10:56:46;97686.59;;;7.63;100.00
34500;BME280;20745;50.882;6.962;2023-01-16T10:59:12;97681.59;;;7.67;100.00
34500;BME280;20745;50.882;6.962;2023-01-16T11:01:39;97680.41;;;7.63;100.00
34500;BME280;20745;50.882;6.962;2023-01-16T11:04:09;97679.38;;;7.64;100.00
34500;BME280;20745;50.882;6.962;2023-01-16T11:06:36;97666.63;;;7.71;100.00
34500;BME280;20745;50.882;6.962;2023-01-16T11:09:16;97666.03;;;7.69;100.00
34500;BME280;20745;50.882;6.962;2023-01-16T11:11:43;97660.88;;;7.79;100.00
34500;BME280;20745;50.882;6.962;2023-01-16T11:14:29;97652.22;;;7.88;100.00
34500;BME280;20745;50.882;6.962;2023-01-16T11:17:22;97648.53;;;7.94;100.00
34500;BME280;20745;50.882;6.962;2023-01-16T11:22:44;97624.13;;;7.96;100.00
34500;BME280;20745;50.882;6.962;2023-01-16T11:25:14;97612.72;;;7.89;100.00
34500;BME280;20745;50.882;6.962;2023-01-16T11:27:44;97618.84;;;7.73;100.00
34500;BME280;20745;50.882;6.962;2023-01-16T11:30:17;97616.50;;;7.76;100.00
34500;BME280;20745;50.882;6.962;2023-01-16T11:32:44;97607.16;;;7.79;100.00
34500;BME280;20745;50.882;6.962;2023-01-16T11:35:15;97602.47;;;7.74;100.00
34500;BME280;20745;50.882;6.962;2023-01-16T11:37:43;97591.97;;;7.73;100.00
34500;BME280;20745;50.882;6.962;2023-01-16T11:40:20;97587.31;;;7.80;100.00
34500;BME280;20745;50.882;6.962;2023-01-16T11:42:55;97584.44;;;7.70;100.00
34500;BME280;20745;50.882;6.962;2023-01-16T11:45:45;97584.50;;;7.75;100.00
34500;BME280;20745;50.882;6.962;2023-01-16T11:48:36;97579.56;;;7.83;100.00
34500;BME280;20745;50.882;6.962;2023-01-16T11:51:04;97572.47;;;7.77;100.00
34500;BME280;20745;50.882;6.962;2023-01-16T11:53:32;97569.53;;;7.79;100.00
34500;BME280;20745;50.882;6.962;2023-01-16T11:56:21;97561.88;;;7.71;100.00
34500;BME280;20745;50.882;6.962;2023-01-16T12:04:34;97542.41;;;7.64;100.00
34500;BME280;20745;50.882;6.962;2023-01-16T12:07:19;97515.31;;;7.65;100.00
34500;BME280;20745;50.882;6.962;2023-01-16T12:15:52;97494.03;;;7.47;100.00
34500;BME280;20745;50.882;6.962;2023-01-16T12:18:34;97498.97;;;7.38;100.00
34500;BME280;20745;50.882;6.962;2023-01-16T12:20:42;97489.75;;;7.34;100.00
34500;BME280;20745;50.882;6.962;2023-01-16T12:28:26;97459.66;;;7.32;100.00
34500;BME280;20745;50.882;6.962;2023-01-16T12:31:08;97458.69;;;7.38;100.00
34500;BME280;20745;50.882;6.962;2023-01-16T12:34:17;97454.38;;;7.37;100.00
34500;BME280;20745;50.882;6.962;2023-01-16T12:39:44;97428.03;;;7.34;100.00
34500;BME280;20745;50.882;6.962;2023-01-16T12:45:26;97428.69;;;7.41;100.00
34500;BME280;20745;50.882;6.962;2023-01-16T12:50:33;97408.34;;;7.45;100.00
34500;BME280;20745;50.882;6.962;2023-01-16T12:53:22;97400.28;;;7.45;100.00
34500;BME280;20745;50.882;6.962;2023-01-16T12:56:40;97397.63;;;7.45;100.00
34500;BME280;20745;50.882;6.962;2023-01-16T12:58:40;97389.66;;;7.50;100.00
34500;BME280;20745;50.882;6.962;2023-01-16T13:01:10;97375.16;;;7.51;100.00
34500;BME280;20745;50.882;6.962;2023-01-16T13:06:06;97356.06;;;7.65;100.00
34500;BME280;20745;50.882;6.962;2023-01-16T13:08:38;97354.50;;;7.69;100.00
34500;BME280;20745;50.882;6.962;2023-01-16T13:11:13;97353.94;;;7.67;100.00
34500;BME280;20745;50.882;6.962;2023-01-16T13:14:04;97352.41;;;7.71;100.00
34500;BME280;20745;50.882;6.962;2023-01-16T13:16:34;97348.56;;;7.67;100.00
34500;BME280;20745;50.882;6.962;2023-01-16T13:19:14;97331.47;;;7.73;100.00
34500;BME280;20745;50.882;6.962;2023-01-16T13:24:27;97326.09;;;7.73;100.00
34500;BME280;20745;50.882;6.962;2023-01-16T13:26:57;97312.66;;;7.73;100.00
34500;BME280;20745;50.882;6.962;2023-01-16T13:29:33;97310.22;;;7.71;100.00
34500;BME280;20745;50.882;6.962;2023-01-16T13:32:37;97311.78;;;7.67;100.00
34500;BME280;20745;50.882;6.962;2023-01-16T13:42:57;97281.28;;;7.57;100.00
34500;BME280;20745;50.882;6.962;2023-01-16T13:45:45;97282.28;;;7.50;100.00
34500;BME280;20745;50.882;6.962;2023-01-16T13:48:21;97272.50;;;7.44;100.00
34500;BME280;20745;50.882;6.962;2023-01-16T13:50:54;97267.72;;;7.46;100.00
34500;BME280;20745;50.882;6.962;2023-01-16T13:53:24;97275.53;;;7.48;100.00
34500;BME280;20745;50.882;6.962;2023-01-16T13:55:59;97267.78;;;7.51;100.00
34500;BME280;20745;50.882;6.962;2023-01-16T13:58:28;97265.09;;;7.51;100.00
34500;BME280;20745;50.882;6.962;2023-01-16T14:00:59;97253.13;;;7.42;100.00
34500;BME280;20745;50.882;6.962;2023-01-16T14:03:27;97254.78;;;7.43;100.00
34500;BME280;20745;50.882;6.962;2023-01-16T14:05:54;97244.69;;;7.34;100.00
34500;BME280;20745;50.882;6.962;2023-01-16T14:11:35;97238.53;;;7.33;100.00
34500;BME280;20745;50.882;6.962;2023-01-16T14:14:16;97238.84;;;7.37;100.00
34500;BME280;20745;50.882;6.962;2023-01-16T14:17:06;97227.63;;;7.40;100.00
34500;BME280;20745;50.882;6.962;2023-01-16T14:19:50;97223.06;;;7.40;100.00
34500;BME280;20745;50.882;6.962;2023-01-16T14:22:21;97219.94;;;7.48;100.00
34500;BME280;20745;50.882;6.962;2023-01-16T14:24:52;97220.03;;;7.53;100.00
34500;BME280;20745;50.882;6.962;2023-01-16T14:27:23;97220.59;;;7.55;100.00
34500;BME280;20745;50.882;6.962;2023-01-16T14:29:51;97210.41;;;7.57;100.00
34500;BME280;20745;50.882;6.962;2023-01-16T14:32:24;97210.97;;;7.59;100.00
34500;BME280;20745;50.882;6.962;2023-01-16T14:37:25;97210.34;;;7.52;100.00
34500;BME280;20745;50.882;6.962;2023-01-16T14:39:53;97192.63;;;7.51;100.00
34500;BME280;20745;50.882;6.962;2023-01-16T14:42:54;97184.31;;;7.53;100.00
34500;BME280;20745;50.882;6.962;2023-01-16T14:45:32;97187.09;;;7.58;100.00
34500;BME280;20745;50.882;6.962;2023-01-16T14:53:56;97168.00;;;7.59;100.00
34500;BME280;20745;50.882;6.962;2023-01-16T14:56:43;97163.72;;;7.58;100.00
34500;BME280;20745;50.882;6.962;2023-01-16T14:59:30;97165.59;;;7.58;100.00
34500;BME280;20745;50.882;6.962;2023-01-16T15:02:05;97162.38;;;7.61;100.00
34500;BME280;20745;50.882;6.962;2023-01-16T15:05:01;97151.97;;;7.65;100.00
34500;BME280;20745;50.882;6.962;2023-01-16T15:07:41;97151.34;;;7.57;100.00
34500;BME280;20745;50.882;6.962;2023-01-16T15:12:42;97153.72;;;7.54;100.00
34500;BME280;20745;50.882;6.962;2023-01-16T15:15:23;97146.22;;;7.56;100.00
34500;BME280;20745;50.882;6.962;2023-01-16T15:17:51;97148.84;;;7.51;100.00